sensor_id;sensor_type;location;lat;lon;timestamp;P1;durP1;ratioP1;P2;durP2;ratioP2
6251;SDS011;3159;52.414;9.784;2022-09-27T00:02:07;0.63;;;0.63;;
6251;SDS011;3159;52.414;9.784;2022-09-27T00:04:34;0.70;;;0.70;;
6251;SDS011;3159;52.414;9.784;2022-09-27T00:07:01;0.80;;;0.70;;
6251;SDS011;3159;52.414;9.784;2022-09-27T00:09:28;1.43;;;0.80;;
6251;SDS011;3159;52.414;9.784;2022-09-27T00:11:55;0.83;;;0.80;;
6251;SDS011;3159;52.414;9.784;2022-09-27T00:14:22;0.83;;;0.67;;
6251;SDS011;3159;52.414;9.784;2022-09-27T00:16:50;1.70;;;1.10;;
6251;SDS011;3159;52.414;9.784;2022-09-27T00:19:18;1.20;;;0.63;;
6251;SDS011;3159;52.414;9.784;2022-09-27T00:21:48;3.40;;;0.70;;
6251;SDS011;3159;52.414;9.784;2022-09-27T00:24:16;0.63;;;0.63;;
6251;SDS011;3159;52.414;9.784;2022-09-27T00:26:44;1.93;;;0.90;;
6251;SDS011;3159;52.414;9.784;2022-09-27T00:29:12;1.00;;;0.87;;
6251;SDS011;3159;52.414;9.784;2022-09-27T00:31:39;1.83;;;0.87;;
6251;SDS011;3159;52.414;9.784;2022-09-27T00:34:09;2.23;;;0.80;;
6251;SDS011;3159;52.414;9.784;2022-09-27T00:36:38;0.70;;;0.70;;
6251;SDS011;3159;52.414;9.784;2022-09-27T00:39:05;1.73;;;1.00;;
6251;SDS011;3159;52.414;9.784;2022-09-27T00:41:32;1.50;;;1.30;;
6251;SDS011;3159;52.414;9.784;2022-09-27T00:44:01;2.60;;;1.10;;
6251;SDS011;3159;52.414;9.784;2022-09-27T00:46:30;1.57;;;1.13;;
6251;SDS011;3159;52.414;9.784;2022-09-27T00:49:03;1.27;;;1.03;;
6251;SDS011;3159;52.414;9.784;2022-09-27T00:51:37;1.20;;;0.83;;
6251;SDS011;3159;52.414;9.784;2022-09-27T00:54:06;0.63;;;0.63;;
6251;SDS011;3159;52.414;9.784;2022-09-27T00:56:36;1.33;;;0.70;;
6251;SDS011;3159;52.414;9.784;2022-09-27T00:59:05;1.53;;;0.70;;
6251;SDS011;3159;52.414;9.784;2022-09-27T01:01:35;1.73;;;0.90;;
6251;SDS011;3159;52.414;9.784;2022-09-27T01:04:04;1.63;;;0.93;;
6251;SDS011;3159;52.414;9.784;2022-09-27T01:06:33;1.57;;;1.10;;
6251;SDS011;3159;52.414;9.784;2022-09-27T01:09:02;1.13;;;1.03;;
6251;SDS011;3159;52.414;9.784;2022-09-27T01:11:34;1.30;;;1.00;;
6251;SDS011;3159;52.414;9.784;2022-09-27T01:14:10;0.97;;;0.93;;
6251;SDS011;3159;52.414;9.784;2022-09-27T01:16:52;1.13;;;0.90;;
6251;SDS011;3159;52.414;9.784;2022-09-27T01:19:33;1.63;;;0.90;;
6251;SDS011;3159;52.414;9.784;2022-09-27T01:22:21;0.70;;;0.70;;
6251;SDS011;3159;52.414;9.784;2022-09-27T01:24:55;2.03;;;0.90;;
6251;SDS011;3159;52.414;9.784;2022-09-27T01:27:35;1.40;;;0.90;;
6251;SDS011;3159;52.414;9.784;2022-09-27T01:30:27;1.43;;;1.13;;
6251;SDS011;3159;52.414;9.784;2022-09-27T01:33:01;1.87;;;0.93;;
6251;SDS011;3159;52.414;9.784;2022-09-27T01:35:49;0.90;;;0.90;;
6251;SDS011;3159;52.414;9.784;2022-09-27T01:38:29;1.20;;;1.10;;
6251;SDS011;3159;52.414;9.784;2022-09-27T01:41:04;1.53;;;0.90;;
6251;SDS011;3159;52.414;9.784;2022-09-27T01:43:39;0.97;;;0.80;;
6251;SDS011;3159;52.414;9.784;2022-09-27T01:46:11;1.13;;;1.03;;
6251;SDS011;3159;52.414;9.784;2022-09-27T01:48:43;1.23;;;1.13;;
6251;SDS011;3159;52.414;9.784;2022-09-27T01:51:15;1.37;;;1.00;;
6251;SDS011;3159;52.414;9.784;2022-09-27T01:53:45;2.37;;;1.10;;
6251;SDS011;3159;52.414;9.784;2022-09-27T01:56:16;1.03;;;1.00;;
6251;SDS011;3159;52.414;9.784;2022-09-27T01:58:49;1.30;;;1.07;;
6251;SDS011;3159;52.414;9.784;2022-09-27T02:01:22;1.00;;;1.00;;
6251;SDS011;3159;52.414;9.784;2022-09-27T02:03:51;1.57;;;1.07;;
6251;SDS011;3159;52.414;9.784;2022-09-27T02:06:22;4.07;;;1.20;;
6251;SDS011;3159;52.414;9.784;2022-09-27T02:08:54;1.13;;;1.03;;
6251;SDS011;3159;52.414;9.784;2022-09-27T02:11:27;3.13;;;1.20;;
6251;SDS011;3159;52.414;9.784;2022-09-27T02:13:55;2.23;;;1.30;;
6251;SDS011;3159;52.414;9.784;2022-09-27T02:16:30;4.20;;;1.33;;
6251;SDS011;3159;52.414;9.784;2022-09-27T02:19:07;1.23;;;1.20;;
6251;SDS011;3159;52.414;9.784;2022-09-27T02:21:39;1.83;;;1.50;;
6251;SDS011;3159;52.414;9.784;2022-09-27T02:24:11;1.60;;;1.47;;
6251;SDS011;3159;52.414;9.784;2022-09-27T02:26:44;1.90;;;1.70;;
6251;SDS011;3159;52.414;9.784;2022-09-27T02:29:14;1.70;;;1.60;;
6251;SDS011;3159;52.414;9.784;2022-09-27T02:31:48;1.50;;;1.40;;
6251;SDS011;3159;52.414;9.784;2022-09-27T02:34:17;2.77;;;1.70;;
6251;SDS011;3159;52.414;9.784;2022-09-27T02:36:47;1.50;;;1.40;;
6251;SDS011;3159;52.414;9.784;2022-09-27T02:39:17;1.43;;;1.33;;
6251;SDS011;3159;52.414;9.784;2022-09-27T02:41:44;1.70;;;1.60;;
6251;SDS011;3159;52.414;9.784;2022-09-27T02:44:12;2.23;;;1.50;;
6251;SDS011;3159;52.414;9.784;2022-09-27T02:46:45;1.63;;;1.53;;
6251;SDS011;3159;52.414;9.784;2022-09-27T02:49:33;1.70;;;1.60;;
6251;SDS011;3159;52.414;9.784;2022-09-27T02:52:16;3.33;;;1.80;;
6251;SDS011;3159;52.414;9.784;2022-09-27T02:54:52;1.63;;;1.50;;
6251;SDS011;3159;52.414;9.784;2022-09-27T02:57:29;2.27;;;1.60;;
6251;SDS011;3159;52.414;9.784;2022-09-27T03:00:03;1.70;;;1.60;;
6251;SDS011;3159;52.414;9.784;2022-09-27T03:02:38;2.23;;;1.57;;
6251;SDS011;3159;52.414;9.784;2022-09-27T03:05:14;1.70;;;1.60;;
6251;SDS011;3159;52.414;9.784;2022-09-27T03:07:45;1.90;;;1.57;;
6251;SDS011;3159;52.414;9.784;2022-09-27T03:10:14;2.17;;;1.60;;
6251;SDS011;3159;52.414;9.784;2022-09-27T03:12:42;1.37;;;1.27;;
6251;SDS011;3159;52.414;9.784;2022-09-27T03:15:09;1.43;;;1.33;;
6251;SDS011;3159;52.414;9.784;2022-09-27T03:17:38;2.33;;;1.20;;
6251;SDS011;3159;52.414;9.784;2022-09-27T03:20:05;1.63;;;1.37;;
6251;SDS011;3159;52.414;9.784;2022-09-27T03:22:33;1.93;;;1.80;;
6251;SDS011;3159;52.414;9.784;2022-09-27T03:25:00;1.73;;;1.63;;
6251;SDS011;3159;52.414;9.784;2022-09-27T03:27:27;1.90;;;1.80;;
6251;SDS011;3159;52.414;9.784;2022-09-27T03:29:53;1.77;;;1.60;;
6251;SDS011;3159;52.414;9.784;2022-09-27T03:32:20;2.13;;;1.93;;
6251;SDS011;3159;52.414;9.784;2022-09-27T03:34:49;1.80;;;1.70;;
6251;SDS011;3159;52.414;9.784;2022-09-27T03:37:18;2.53;;;2.00;;
6251;SDS011;3159;52.414;9.784;2022-09-27T03:39:44;2.10;;;2.00;;
6251;SDS011;3159;52.414;9.784;2022-09-27T03:42:11;1.80;;;1.70;;
6251;SDS011;3159;52.414;9.784;2022-09-27T03:44:38;2.73;;;2.07;;
6251;SDS011;3159;52.414;9.784;2022-09-27T03:47:05;2.60;;;2.40;;
6251;SDS011;3159;52.414;9.784;2022-09-27T03:49:32;3.97;;;3.07;;
6251;SDS011;3159;52.414;9.784;2022-09-27T03:52:01;4.37;;;2.80;;
6251;SDS011;3159;52.414;9.784;2022-09-27T03:54:27;3.53;;;2.97;;
6251;SDS011;3159;52.414;9.784;2022-09-27T03:56:54;3.40;;;3.20;;
6251;SDS011;3159;52.414;9.784;2022-09-27T03:59:21;3.50;;;3.20;;
6251;SDS011;3159;52.414;9.784;2022-09-27T04:01:48;5.23;;;3.90;;
6251;SDS011;3159;52.414;9.784;2022-09-27T04:04:15;4.73;;;4.30;;
6251;SDS011;3159;52.414;9.784;2022-09-27T04:06:42;5.10;;;4.47;;
6251;SDS011;3159;52.414;9.784;2022-09-27T04:09:11;4.03;;;3.63;;
6251;SDS011;3159;52.414;9.784;2022-09-27T04:11:37;3.33;;;2.90;;
6251;SDS011;3159;52.414;9.784;2022-09-27T04:14:04;3.13;;;2.83;;
6251;SDS011;3159;52.414;9.784;2022-09-27T04:16:33;3.90;;;2.83;;
6251;SDS011;3159;52.414;9.784;2022-09-27T04:19:00;3.13;;;2.83;;
6251;SDS011;3159;52.414;9.784;2022-09-27T04:21:27;3.30;;;2.23;;
6251;SDS011;3159;52.414;9.784;2022-09-27T04:23:54;2.77;;;2.33;;
6251;SDS011;3159;52.414;9.784;2022-09-27T04:26:23;2.90;;;2.40;;
6251;SDS011;3159;52.414;9.784;2022-09-27T04:28:50;3.80;;;2.50;;
6251;SDS011;3159;52.414;9.784;2022-09-27T04:31:18;2.83;;;2.43;;
6251;SDS011;3159;52.414;9.784;2022-09-27T04:33:45;2.67;;;2.27;;
6251;SDS011;3159;52.414;9.784;2022-09-27T04:36:13;3.27;;;2.47;;
6251;SDS011;3159;52.414;9.784;2022-09-27T04:38:53;6.70;;;2.40;;
6251;SDS011;3159;52.414;9.784;2022-09-27T04:41:21;4.77;;;2.73;;
6251;SDS011;3159;52.414;9.784;2022-09-27T04:43:50;2.87;;;2.60;;
6251;SDS011;3159;52.414;9.784;2022-09-27T04:46:18;3.13;;;2.83;;
6251;SDS011;3159;52.414;9.784;2022-09-27T04:48:46;3.70;;;3.30;;
6251;SDS011;3159;52.414;9.784;2022-09-27T04:51:13;4.03;;;3.37;;
6251;SDS011;3159;52.414;9.784;2022-09-27T04:53:41;5.27;;;3.73;;
6251;SDS011;3159;52.414;9.784;2022-09-27T04:56:08;5.40;;;3.70;;
6251;SDS011;3159;52.414;9.784;2022-09-27T04:58:37;6.20;;;3.93;;
6251;SDS011;3159;52.414;9.784;2022-09-27T05:01:04;4.80;;;4.23;;
6251;SDS011;3159;52.414;9.784;2022-09-27T05:03:31;4.50;;;4.10;;
6251;SDS011;3159;52.414;9.784;2022-09-27T05:05:58;4.17;;;3.77;;
6251;SDS011;3159;52.414;9.784;2022-09-27T05:08:25;4.00;;;3.60;;
6251;SDS011;3159;52.414;9.784;2022-09-27T05:10:53;4.90;;;3.57;;
6251;SDS011;3159;52.414;9.784;2022-09-27T05:13:20;4.60;;;3.63;;
6251;SDS011;3159;52.414;9.784;2022-09-27T05:15:48;6.07;;;3.43;;
6251;SDS011;3159;52.414;9.784;2022-09-27T05:18:16;4.20;;;3.67;;
6251;SDS011;3159;52.414;9.784;2022-09-27T05:20:43;4.33;;;3.07;;
6251;SDS011;3159;52.414;9.784;2022-09-27T05:23:10;5.30;;;3.37;;
6251;SDS011;3159;52.414;9.784;2022-09-27T05:25:37;3.90;;;3.07;;
6251;SDS011;3159;52.414;9.784;2022-09-27T05:28:04;4.60;;;3.17;;
6251;SDS011;3159;52.414;9.784;2022-09-27T05:30:33;7.60;;;4.07;;
6251;SDS011;3159;52.414;9.784;2022-09-27T05:33:01;4.10;;;3.37;;
6251;SDS011;3159;52.414;9.784;2022-09-27T05:35:29;4.53;;;3.53;;
6251;SDS011;3159;52.414;9.784;2022-09-27T05:37:58;4.73;;;3.10;;
6251;SDS011;3159;52.414;9.784;2022-09-27T05:40:25;4.13;;;2.77;;
6251;SDS011;3159;52.414;9.784;2022-09-27T05:42:53;3.97;;;2.93;;
6251;SDS011;3159;52.414;9.784;2022-09-27T05:45:21;4.87;;;2.90;;
6251;SDS011;3159;52.414;9.784;2022-09-27T05:47:52;3.80;;;2.77;;
6251;SDS011;3159;52.414;9.784;2022-09-27T05:50:21;6.57;;;3.60;;
6251;SDS011;3159;52.414;9.784;2022-09-27T05:52:48;4.67;;;3.13;;
6251;SDS011;3159;52.414;9.784;2022-09-27T05:55:15;3.93;;;2.70;;
6251;SDS011;3159;52.414;9.784;2022-09-27T05:57:52;3.43;;;2.80;;
6251;SDS011;3159;52.414;9.784;2022-09-27T06:00:20;5.03;;;3.03;;
6251;SDS011;3159;52.414;9.784;2022-09-27T06:02:51;4.90;;;3.03;;
6251;SDS011;3159;52.414;9.784;2022-09-27T06:05:20;5.17;;;2.60;;
6251;SDS011;3159;52.414;9.784;2022-09-27T06:07:49;4.20;;;3.23;;
6251;SDS011;3159;52.414;9.784;2022-09-27T06:10:17;5.37;;;3.27;;
6251;SDS011;3159;52.414;9.784;2022-09-27T06:12:45;8.60;;;3.27;;
6251;SDS011;3159;52.414;9.784;2022-09-27T06:15:11;4.73;;;2.90;;
6251;SDS011;3159;52.414;9.784;2022-09-27T06:17:38;5.40;;;3.10;;
6251;SDS011;3159;52.414;9.784;2022-09-27T06:20:06;6.53;;;3.47;;
6251;SDS011;3159;52.414;9.784;2022-09-27T06:22:35;4.57;;;2.97;;
6251;SDS011;3159;52.414;9.784;2022-09-27T06:25:02;4.27;;;2.60;;
6251;SDS011;3159;52.414;9.784;2022-09-27T06:27:29;6.27;;;3.17;;
6251;SDS011;3159;52.414;9.784;2022-09-27T06:29:56;3.57;;;2.80;;
6251;SDS011;3159;52.414;9.784;2022-09-27T06:32:23;5.13;;;3.17;;
6251;SDS011;3159;52.414;9.784;2022-09-27T06:34:50;4.30;;;2.47;;
6251;SDS011;3159;52.414;9.784;2022-09-27T06:37:17;5.40;;;2.20;;
6251;SDS011;3159;52.414;9.784;2022-09-27T06:39:45;3.60;;;2.20;;
6251;SDS011;3159;52.414;9.784;2022-09-27T06:42:13;9.33;;;2.23;;
6251;SDS011;3159;52.414;9.784;2022-09-27T06:44:42;11.10;;;2.10;;
6251;SDS011;3159;52.414;9.784;2022-09-27T06:47:11;3.97;;;2.13;;
6251;SDS011;3159;52.414;9.784;2022-09-27T06:49:38;6.43;;;1.70;;
6251;SDS011;3159;52.414;9.784;2022-09-27T06:52:05;4.13;;;1.50;;
6251;SDS011;3159;52.414;9.784;2022-09-27T06:54:32;4.53;;;2.27;;
6251;SDS011;3159;52.414;9.784;2022-09-27T06:57:00;4.13;;;2.03;;
6251;SDS011;3159;52.414;9.784;2022-09-27T06:59:27;3.80;;;2.40;;
6251;SDS011;3159;52.414;9.784;2022-09-27T07:02:11;3.93;;;2.60;;
6251;SDS011;3159;52.414;9.784;2022-09-27T07:04:39;4.07;;;2.13;;
6251;SDS011;3159;52.414;9.784;2022-09-27T07:07:05;5.27;;;2.10;;
6251;SDS011;3159;52.414;9.784;2022-09-27T07:09:33;4.67;;;1.93;;
6251;SDS011;3159;52.414;9.784;2022-09-27T07:12:04;4.00;;;2.40;;
6251;SDS011;3159;52.414;9.784;2022-09-27T07:14:31;4.67;;;2.23;;
6251;SDS011;3159;52.414;9.784;2022-09-27T07:16:59;2.30;;;2.10;;
6251;SDS011;3159;52.414;9.784;2022-09-27T07:19:26;4.43;;;2.63;;
6251;SDS011;3159;52.414;9.784;2022-09-27T07:21:53;4.20;;;2.70;;
6251;SDS011;3159;52.414;9.784;2022-09-27T07:24:20;8.17;;;3.20;;
6251;SDS011;3159;52.414;9.784;2022-09-27T07:26:47;4.53;;;2.67;;
6251;SDS011;3159;52.414;9.784;2022-09-27T07:29:15;4.87;;;2.90;;
6251;SDS011;3159;52.414;9.784;2022-09-27T07:31:42;3.43;;;2.47;;
6251;SDS011;3159;52.414;9.784;2022-09-27T07:34:09;4.73;;;3.17;;
6251;SDS011;3159;52.414;9.784;2022-09-27T07:36:36;3.20;;;2.87;;
6251;SDS011;3159;52.414;9.784;2022-09-27T07:39:03;4.43;;;3.10;;
6251;SDS011;3159;52.414;9.784;2022-09-27T07:41:30;5.60;;;2.90;;
6251;SDS011;3159;52.414;9.784;2022-09-27T07:43:57;4.23;;;2.93;;
6251;SDS011;3159;52.414;9.784;2022-09-27T07:46:25;4.87;;;2.83;;
6251;SDS011;3159;52.414;9.784;2022-09-27T07:48:54;5.60;;;2.80;;
6251;SDS011;3159;52.414;9.784;2022-09-27T07:51:21;4.07;;;2.73;;
6251;SDS011;3159;52.414;9.784;2022-09-27T07:53:49;5.63;;;3.43;;
6251;SDS011;3159;52.414;9.784;2022-09-27T07:56:16;4.97;;;3.10;;
6251;SDS011;3159;52.414;9.784;2022-09-27T07:58:43;3.80;;;2.40;;
6251;SDS011;3159;52.414;9.784;2022-09-27T08:01:10;4.37;;;2.70;;
6251;SDS011;3159;52.414;9.784;2022-09-27T08:03:38;5.13;;;2.40;;
6251;SDS011;3159;52.414;9.784;2022-09-27T08:06:05;4.03;;;2.43;;
6251;SDS011;3159;52.414;9.784;2022-09-27T08:08:32;4.30;;;2.00;;
6251;SDS011;3159;52.414;9.784;2022-09-27T08:10:59;3.83;;;2.20;;
6251;SDS011;3159;52.414;9.784;2022-09-27T08:13:26;4.30;;;1.87;;
6251;SDS011;3159;52.414;9.784;2022-09-27T08:15:53;3.97;;;1.90;;
6251;SDS011;3159;52.414;9.784;2022-09-27T08:18:25;5.13;;;2.03;;
6251;SDS011;3159;52.414;9.784;2022-09-27T08:20:56;5.20;;;2.33;;
6251;SDS011;3159;52.414;9.784;2022-09-27T08:23:23;6.40;;;3.40;;
6251;SDS011;3159;52.414;9.784;2022-09-27T08:25:51;3.17;;;2.93;;
6251;SDS011;3159;52.414;9.784;2022-09-27T08:28:18;5.53;;;3.33;;
6251;SDS011;3159;52.414;9.784;2022-09-27T08:30:46;6.10;;;3.27;;
6251;SDS011;3159;52.414;9.784;2022-09-27T08:33:13;7.13;;;3.60;;
6251;SDS011;3159;52.414;9.784;2022-09-27T08:35:40;5.77;;;3.20;;
6251;SDS011;3159;52.414;9.784;2022-09-27T08:38:09;6.73;;;3.50;;
6251;SDS011;3159;52.414;9.784;2022-09-27T08:40:39;3.20;;;2.53;;
6251;SDS011;3159;52.414;9.784;2022-09-27T08:43:18;2.73;;;2.43;;
6251;SDS011;3159;52.414;9.784;2022-09-27T08:45:54;2.87;;;2.57;;
6251;SDS011;3159;52.414;9.784;2022-09-27T08:48:32;4.80;;;2.60;;
6251;SDS011;3159;52.414;9.784;2022-09-27T08:51:02;5.07;;;3.20;;
6251;SDS011;3159;52.414;9.784;2022-09-27T08:53:35;4.10;;;2.63;;
6251;SDS011;3159;52.414;9.784;2022-09-27T08:56:05;4.67;;;2.90;;
6251;SDS011;3159;52.414;9.784;2022-09-27T08:58:34;8.33;;;3.33;;
6251;SDS011;3159;52.414;9.784;2022-09-27T09:01:10;5.87;;;2.70;;
6251;SDS011;3159;52.414;9.784;2022-09-27T09:03:42;4.77;;;3.07;;
6251;SDS011;3159;52.414;9.784;2022-09-27T09:06:15;3.83;;;3.10;;
6251;SDS011;3159;52.414;9.784;2022-09-27T09:08:51;4.97;;;3.17;;
6251;SDS011;3159;52.414;9.784;2022-09-27T09:11:33;5.17;;;3.90;;
6251;SDS011;3159;52.414;9.784;2022-09-27T09:17:25;6.93;;;4.13;;
6251;SDS011;3159;52.414;9.784;2022-09-27T09:20:09;4.93;;;4.40;;
6251;SDS011;3159;52.414;9.784;2022-09-27T09:22:48;4.00;;;3.43;;
6251;SDS011;3159;52.414;9.784;2022-09-27T09:25:29;3.67;;;3.30;;
6251;SDS011;3159;52.414;9.784;2022-09-27T09:28:04;5.27;;;2.63;;
6251;SDS011;3159;52.414;9.784;2022-09-27T09:30:40;3.73;;;2.40;;
6251;SDS011;3159;52.414;9.784;2022-09-27T09:33:15;7.07;;;2.10;;
6251;SDS011;3159;52.414;9.784;2022-09-27T09:35:49;3.27;;;1.83;;
6251;SDS011;3159;52.414;9.784;2022-09-27T09:38:23;4.07;;;2.10;;
6251;SDS011;3159;52.414;9.784;2022-09-27T09:41:01;4.43;;;2.30;;
6251;SDS011;3159;52.414;9.784;2022-09-27T09:43:32;3.23;;;2.00;;
6251;SDS011;3159;52.414;9.784;2022-09-27T09:46:06;3.63;;;1.90;;
6251;SDS011;3159;52.414;9.784;2022-09-27T09:48:38;2.27;;;2.00;;
6251;SDS011;3159;52.414;9.784;2022-09-27T09:51:11;2.13;;;1.77;;
6251;SDS011;3159;52.414;9.784;2022-09-27T09:53:48;2.90;;;1.87;;
6251;SDS011;3159;52.414;9.784;2022-09-27T09:56:21;3.53;;;2.10;;
6251;SDS011;3159;52.414;9.784;2022-09-27T09:58:51;7.00;;;3.10;;
6251;SDS011;3159;52.414;9.784;2022-09-27T10:01:24;5.03;;;2.53;;
6251;SDS011;3159;52.414;9.784;2022-09-27T10:03:53;2.57;;;2.37;;
6251;SDS011;3159;52.414;9.784;2022-09-27T10:06:21;2.67;;;2.43;;
6251;SDS011;3159;52.414;9.784;2022-09-27T10:08:49;2.77;;;2.27;;
6251;SDS011;3159;52.414;9.784;2022-09-27T10:11:19;2.70;;;2.20;;
6251;SDS011;3159;52.414;9.784;2022-09-27T10:13:50;2.53;;;2.00;;
6251;SDS011;3159;52.414;9.784;2022-09-27T10:16:20;3.47;;;2.50;;
6251;SDS011;3159;52.414;9.784;2022-09-27T10:18:47;3.23;;;2.17;;
6251;SDS011;3159;52.414;9.784;2022-09-27T10:21:18;2.50;;;2.00;;
6251;SDS011;3159;52.414;9.784;2022-09-27T10:24:07;4.03;;;1.97;;
6251;SDS011;3159;52.414;9.784;2022-09-27T10:26:36;3.53;;;1.80;;
6251;SDS011;3159;52.414;9.784;2022-09-27T10:29:14;4.13;;;1.63;;
6251;SDS011;3159;52.414;9.784;2022-09-27T10:31:56;2.60;;;1.50;;
6251;SDS011;3159;52.414;9.784;2022-09-27T10:34:26;1.77;;;1.00;;
6251;SDS011;3159;52.414;9.784;2022-09-27T10:37:03;3.30;;;1.10;;
6251;SDS011;3159;52.414;9.784;2022-09-27T10:39:41;1.50;;;0.97;;
6251;SDS011;3159;52.414;9.784;2022-09-27T10:42:20;2.43;;;0.90;;
6251;SDS011;3159;52.414;9.784;2022-09-27T10:44:48;1.90;;;0.63;;
6251;SDS011;3159;52.414;9.784;2022-09-27T10:47:16;0.93;;;0.53;;
6251;SDS011;3159;52.414;9.784;2022-09-27T10:49:47;1.13;;;0.50;;
6251;SDS011;3159;52.414;9.784;2022-09-27T10:52:17;2.03;;;0.60;;
6251;SDS011;3159;52.414;9.784;2022-09-27T10:54:51;2.37;;;0.87;;
6251;SDS011;3159;52.414;9.784;2022-09-27T10:57:21;1.20;;;0.60;;
6251;SDS011;3159;52.414;9.784;2022-09-27T10:59:50;3.17;;;1.17;;
6251;SDS011;3159;52.414;9.784;2022-09-27T11:02:20;1.80;;;0.70;;
6251;SDS011;3159;52.414;9.784;2022-09-27T11:05:06;2.13;;;0.60;;
6251;SDS011;3159;52.414;9.784;2022-09-27T11:07:37;2.30;;;0.40;;
6251;SDS011;3159;52.414;9.784;2022-09-27T11:10:19;3.17;;;0.90;;
6251;SDS011;3159;52.414;9.784;2022-09-27T11:15:52;2.77;;;0.80;;
6251;SDS011;3159;52.414;9.784;2022-09-27T11:18:31;1.83;;;0.50;;
6251;SDS011;3159;52.414;9.784;2022-09-27T11:21:12;2.00;;;0.50;;
6251;SDS011;3159;52.414;9.784;2022-09-27T11:23:52;3.00;;;0.50;;
6251;SDS011;3159;52.414;9.784;2022-09-27T11:26:40;2.00;;;0.53;;
6251;SDS011;3159;52.414;9.784;2022-09-27T11:29:19;2.97;;;0.77;;
6251;SDS011;3159;52.414;9.784;2022-09-27T11:32:03;1.40;;;0.60;;
6251;SDS011;3159;52.414;9.784;2022-09-27T11:34:45;2.10;;;0.73;;
6251;SDS011;3159;52.414;9.784;2022-09-27T11:37:24;1.80;;;0.60;;
6251;SDS011;3159;52.414;9.784;2022-09-27T11:40:00;1.60;;;0.40;;
6251;SDS011;3159;52.414;9.784;2022-09-27T11:42:40;0.50;;;0.30;;
6251;SDS011;3159;52.414;9.784;2022-09-27T11:45:25;1.00;;;0.50;;
6251;SDS011;3159;52.414;9.784;2022-09-27T11:48:13;1.23;;;0.50;;
6251;SDS011;3159;52.414;9.784;2022-09-27T11:50:59;2.13;;;0.50;;
6251;SDS011;3159;52.414;9.784;2022-09-27T11:56:30;1.63;;;0.50;;
6251;SDS011;3159;52.414;9.784;2022-09-27T11:59:09;0.67;;;0.30;;
6251;SDS011;3159;52.414;9.784;2022-09-27T12:01:55;0.93;;;0.30;;
6251;SDS011;3159;52.414;9.784;2022-09-27T12:04:35;0.60;;;0.40;;
6251;SDS011;3159;52.414;9.784;2022-09-27T12:07:14;1.10;;;0.30;;
6251;SDS011;3159;52.414;9.784;2022-09-27T12:09:51;0.60;;;0.40;;
6251;SDS011;3159;52.414;9.784;2022-09-27T12:12:22;0.73;;;0.30;;
6251;SDS011;3159;52.414;9.784;2022-09-27T12:14:54;0.70;;;0.40;;
6251;SDS011;3159;52.414;9.784;2022-09-27T12:17:25;1.47;;;0.30;;
6251;SDS011;3159;52.414;9.784;2022-09-27T12:19:56;0.50;;;0.40;;
6251;SDS011;3159;52.414;9.784;2022-09-27T12:22:25;0.97;;;0.50;;
6251;SDS011;3159;52.414;9.784;2022-09-27T12:24:57;1.23;;;0.40;;
6251;SDS011;3159;52.414;9.784;2022-09-27T12:27:26;4.23;;;3.60;;
6251;SDS011;3159;52.414;9.784;2022-09-27T12:30:00;2.53;;;0.67;;
6251;SDS011;3159;52.414;9.784;2022-09-27T12:32:29;1.30;;;0.50;;
6251;SDS011;3159;52.414;9.784;2022-09-27T12:35:05;1.17;;;0.60;;
6251;SDS011;3159;52.414;9.784;2022-09-27T12:37:41;2.60;;;0.77;;
6251;SDS011;3159;52.414;9.784;2022-09-27T12:40:14;1.40;;;0.60;;
6251;SDS011;3159;52.414;9.784;2022-09-27T12:42:44;1.30;;;0.70;;
6251;SDS011;3159;52.414;9.784;2022-09-27T12:45:16;1.87;;;0.77;;
6251;SDS011;3159;52.414;9.784;2022-09-27T12:47:54;1.23;;;0.67;;
6251;SDS011;3159;52.414;9.784;2022-09-27T12:50:32;1.07;;;0.80;;
6251;SDS011;3159;52.414;9.784;2022-09-27T12:53:04;1.20;;;0.70;;
6251;SDS011;3159;52.414;9.784;2022-09-27T12:55:51;2.33;;;0.73;;
6251;SDS011;3159;52.414;9.784;2022-09-27T13:01:56;1.00;;;0.90;;
6251;SDS011;3159;52.414;9.784;2022-09-27T13:04:51;1.13;;;0.70;;
6251;SDS011;3159;52.414;9.784;2022-09-27T13:07:34;1.07;;;0.60;;
6251;SDS011;3159;52.414;9.784;2022-09-27T13:10:19;2.17;;;0.60;;
6251;SDS011;3159;52.414;9.784;2022-09-27T13:13:08;2.27;;;0.73;;
6251;SDS011;3159;52.414;9.784;2022-09-27T13:15:37;1.77;;;0.70;;
6251;SDS011;3159;52.414;9.784;2022-09-27T13:18:05;1.93;;;0.63;;
6251;SDS011;3159;52.414;9.784;2022-09-27T13:20:53;2.10;;;0.70;;
6251;SDS011;3159;52.414;9.784;2022-09-27T13:26:46;1.30;;;0.70;;
6251;SDS011;3159;52.414;9.784;2022-09-27T13:29:27;1.00;;;0.90;;
6251;SDS011;3159;52.414;9.784;2022-09-27T13:34:47;0.80;;;0.80;;
6251;SDS011;3159;52.414;9.784;2022-09-27T13:40:20;3.80;;;0.93;;
6251;SDS011;3159;52.414;9.784;2022-09-27T13:43:12;1.83;;;1.00;;
6251;SDS011;3159;52.414;9.784;2022-09-27T13:46:06;2.20;;;1.00;;
6251;SDS011;3159;52.414;9.784;2022-09-27T13:48:45;1.33;;;1.23;;
6251;SDS011;3159;52.414;9.784;2022-09-27T13:51:17;1.60;;;1.03;;
6251;SDS011;3159;52.414;9.784;2022-09-27T13:53:55;1.13;;;0.77;;
6251;SDS011;3159;52.414;9.784;2022-09-27T13:59:19;1.50;;;1.00;;
6251;SDS011;3159;52.414;9.784;2022-09-27T14:01:58;1.87;;;0.70;;
6251;SDS011;3159;52.414;9.784;2022-09-27T14:04:31;2.00;;;1.20;;
6251;SDS011;3159;52.414;9.784;2022-09-27T14:07:02;2.53;;;1.10;;
6251;SDS011;3159;52.414;9.784;2022-09-27T14:09:30;1.33;;;1.10;;
6251;SDS011;3159;52.414;9.784;2022-09-27T14:12:00;2.53;;;1.33;;
6251;SDS011;3159;52.414;9.784;2022-09-27T14:14:31;1.23;;;0.90;;
6251;SDS011;3159;52.414;9.784;2022-09-27T14:17:00;2.30;;;0.87;;
6251;SDS011;3159;52.414;9.784;2022-09-27T14:19:31;2.90;;;1.70;;
6251;SDS011;3159;52.414;9.784;2022-09-27T14:21:59;1.47;;;1.20;;
6251;SDS011;3159;52.414;9.784;2022-09-27T14:24:31;2.80;;;0.73;;
6251;SDS011;3159;52.414;9.784;2022-09-27T14:27:12;1.07;;;0.70;;
6251;SDS011;3159;52.414;9.784;2022-09-27T14:29:44;10.33;;;8.97;;
6251;SDS011;3159;52.414;9.784;2022-09-27T14:32:13;11.23;;;10.33;;
6251;SDS011;3159;52.414;9.784;2022-09-27T14:34:42;2.37;;;2.13;;
6251;SDS011;3159;52.414;9.784;2022-09-27T14:37:20;4.93;;;4.50;;
6251;SDS011;3159;52.414;9.784;2022-09-27T14:39:55;2.30;;;2.10;;
6251;SDS011;3159;52.414;9.784;2022-09-27T14:42:25;1.60;;;0.93;;
6251;SDS011;3159;52.414;9.784;2022-09-27T14:44:59;2.20;;;1.63;;
6251;SDS011;3159;52.414;9.784;2022-09-27T14:47:28;4.03;;;2.50;;
6251;SDS011;3159;52.414;9.784;2022-09-27T14:49:55;1.60;;;1.40;;
6251;SDS011;3159;52.414;9.784;2022-09-27T14:52:24;2.87;;;1.90;;
6251;SDS011;3159;52.414;9.784;2022-09-27T14:54:55;6.27;;;1.87;;
6251;SDS011;3159;52.414;9.784;2022-09-27T14:57:24;2.60;;;1.40;;
6251;SDS011;3159;52.414;9.784;2022-09-27T14:59:52;1.60;;;1.30;;
6251;SDS011;3159;52.414;9.784;2022-09-27T15:02:22;1.80;;;1.00;;
6251;SDS011;3159;52.414;9.784;2022-09-27T15:04:52;2.87;;;2.63;;
6251;SDS011;3159;52.414;9.784;2022-09-27T15:07:19;2.13;;;1.93;;
6251;SDS011;3159;52.414;9.784;2022-09-27T15:09:47;2.50;;;2.30;;
6251;SDS011;3159;52.414;9.784;2022-09-27T15:12:21;4.57;;;4.20;;
6251;SDS011;3159;52.414;9.784;2022-09-27T15:14:50;6.27;;;5.77;;
6251;SDS011;3159;52.414;9.784;2022-09-27T15:17:20;2.10;;;2.00;;
6251;SDS011;3159;52.414;9.784;2022-09-27T15:20:02;1.80;;;1.70;;
6251;SDS011;3159;52.414;9.784;2022-09-27T15:22:44;2.00;;;1.90;;
6251;SDS011;3159;52.414;9.784;2022-09-27T15:25:15;2.43;;;2.33;;
6251;SDS011;3159;52.414;9.784;2022-09-27T15:27:48;3.13;;;2.93;;
6251;SDS011;3159;52.414;9.784;2022-09-27T15:30:17;2.73;;;1.10;;
6251;SDS011;3159;52.414;9.784;2022-09-27T15:32:47;2.40;;;2.20;;
6251;SDS011;3159;52.414;9.784;2022-09-27T15:35:19;1.33;;;1.23;;
6251;SDS011;3159;52.414;9.784;2022-09-27T15:38:01;1.40;;;1.30;;
6251;SDS011;3159;52.414;9.784;2022-09-27T15:43:33;1.57;;;1.47;;
6251;SDS011;3159;52.414;9.784;2022-09-27T15:46:04;0.63;;;0.60;;
6251;SDS011;3159;52.414;9.784;2022-09-27T15:51:50;1.07;;;0.97;;
6251;SDS011;3159;52.414;9.784;2022-09-27T15:54:18;1.07;;;0.90;;
6251;SDS011;3159;52.414;9.784;2022-09-27T15:56:46;1.10;;;1.00;;
6251;SDS011;3159;52.414;9.784;2022-09-27T15:59:16;1.20;;;1.10;;
6251;SDS011;3159;52.414;9.784;2022-09-27T16:01:48;1.17;;;0.93;;
6251;SDS011;3159;52.414;9.784;2022-09-27T16:04:15;1.40;;;0.83;;
6251;SDS011;3159;52.414;9.784;2022-09-27T16:06:42;1.33;;;1.10;;
6251;SDS011;3159;52.414;9.784;2022-09-27T16:09:13;2.20;;;2.10;;
6251;SDS011;3159;52.414;9.784;2022-09-27T16:11:43;1.80;;;1.50;;
6251;SDS011;3159;52.414;9.784;2022-09-27T16:14:09;1.87;;;1.77;;